sensor_id;sensor_type;location;lat;lon;timestamp;temperature;humidity
43043;DHT22;28667;50.758;6.096;2023-05-07T00:01:41;13.70;99.90
43043;DHT22;28667;50.758;6.096;2023-05-07T00:04:06;13.70;99.90
43043;DHT22;28667;50.758;6.096;2023-05-07T00:06:33;13.70;99.90
43043;DHT22;28667;50.758;6.096;2023-05-07T00:08:59;13.70;99.90
43043;DHT22;28667;50.758;6.096;2023-05-07T00:11:25;13.70;99.90
43043;DHT22;28667;50.758;6.096;2023-05-07T00:13:51;13.70;99.90
43043;DHT22;28667;50.758;6.096;2023-05-07T00:16:17;13.70;99.90
43043;DHT22;28667;50.758;6.096;2023-05-07T00:18:43;13.80;99.90
43043;DHT22;28667;50.758;6.096;2023-05-07T00:21:08;13.80;99.90
43043;DHT22;28667;50.758;6.096;2023-05-07T00:23:34;13.80;99.90
43043;DHT22;28667;50.758;6.096;2023-05-07T00:26:00;13.80;99.90
43043;DHT22;28667;50.758;6.096;2023-05-07T00:28:26;13.80;99.90
43043;DHT22;28667;50.758;6.096;2023-05-07T00:30:52;13.80;99.90
43043;DHT22;28667;50.758;6.096;2023-05-07T00:33:18;13.80;99.90
43043;DHT22;28667;50.758;6.096;2023-05-07T00:35:45;13.80;99.90
43043;DHT22;28667;50.758;6.096;2023-05-07T00:38:11;13.80;99.90
43043;DHT22;28667;50.758;6.096;2023-05-07T00:40:37;13.80;99.90
43043;DHT22;28667;50.758;6.096;2023-05-07T00:43:03;13.80;99.90
43043;DHT22;28667;50.758;6.096;2023-05-07T00:45:29;13.90;99.90
43043;DHT22;28667;50.758;6.096;2023-05-07T00:47:59;13.80;99.90
43043;DHT22;28667;50.758;6.096;2023-05-07T00:50:29;13.90;99.90
43043;DHT22;28667;50.758;6.096;2023-05-07T00:52:55;13.90;99.90
43043;DHT22;28667;50.758;6.096;2023-05-07T00:55:23;13.90;99.90
43043;DHT22;28667;50.758;6.096;2023-05-07T00:57:49;13.90;99.90
43043;DHT22;28667;50.758;6.096;2023-05-07T01:00:15;13.90;99.90
43043;DHT22;28667;50.758;6.096;2023-05-07T01:02:42;13.90;99.90
43043;DHT22;28667;50.758;6.096;2023-05-07T01:05:14;13.90;99.90
43043;DHT22;28667;50.758;6.096;2023-05-07T01:07:42;13.90;99.90
43043;DHT22;28667;50.758;6.096;2023-05-07T01:10:08;13.90;99.90
43043;DHT22;28667;50.758;6.096;2023-05-07T01:12:37;13.90;99.90
43043;DHT22;28667;50.758;6.096;2023-05-07T01:15:03;13.90;99.90
43043;DHT22;28667;50.758;6.096;2023-05-07T01:17:41;13.90;99.90
43043;DHT22;28667;50.758;6.096;2023-05-07T01:20:12;13.90;99.90
43043;DHT22;28667;50.758;6.096;2023-05-07T01:22:40;13.90;99.90
43043;DHT22;28667;50.758;6.096;2023-05-07T01:25:07;13.90;99.90
43043;DHT22;28667;50.758;6.096;2023-05-07T01:27:35;13.90;99.90
43043;DHT22;28667;50.758;6.096;2023-05-07T01:30:04;13.90;99.90
43043;DHT22;28667;50.758;6.096;2023-05-07T01:35:18;13.90;99.90
43043;DHT22;28667;50.758;6.096;2023-05-07T01:37:46;13.90;99.90
43043;DHT22;28667;50.758;6.096;2023-05-07T01:40:12;13.80;99.90
43043;DHT22;28667;50.758;6.096;2023-05-07T01:42:38;13.80;99.90
43043;DHT22;28667;50.758;6.096;2023-05-07T01:45:05;13.80;99.90
43043;DHT22;28667;50.758;6.096;2023-05-07T01:47:32;13.80;99.90
43043;DHT22;28667;50.758;6.096;2023-05-07T01:49:58;13.70;99.90
43043;DHT22;28667;50.758;6.096;2023-05-07T01:52:24;13.70;99.90
43043;DHT22;28667;50.758;6.096;2023-05-07T01:54:50;13.70;99.90
43043;DHT22;28667;50.758;6.096;2023-05-07T01:57:16;13.70;99.90
43043;DHT22;28667;50.758;6.096;2023-05-07T01:59:42;13.60;99.90
43043;DHT22;28667;50.758;6.096;2023-05-07T02:02:07;13.60;99.90
43043;DHT22;28667;50.758;6.096;2023-05-07T02:04:35;13.60;99.90
43043;DHT22;28667;50.758;6.096;2023-05-07T02:07:02;13.60;99.90
43043;DHT22;28667;50.758;6.096;2023-05-07T02:09:30;13.50;99.90
43043;DHT22;28667;50.758;6.096;2023-05-07T02:11:56;13.50;99.90
43043;DHT22;28667;50.758;6.096;2023-05-07T02:14:23;13.50;99.90
43043;DHT22;28667;50.758;6.096;2023-05-07T02:16:48;13.40;99.90
43043;DHT22;28667;50.758;6.096;2023-05-07T02:19:15;13.40;99.90
43043;DHT22;28667;50.758;6.096;2023-05-07T02:21:41;13.40;99.90
43043;DHT22;28667;50.758;6.096;2023-05-07T02:24:07;13.40;99.90
43043;DHT22;28667;50.758;6.096;2023-05-07T02:26:33;13.40;99.90
43043;DHT22;28667;50.758;6.096;2023-05-07T02:28:59;13.30;99.90
43043;DHT22;28667;50.758;6.096;2023-05-07T02:31:25;13.40;99.90
43043;DHT22;28667;50.758;6.096;2023-05-07T02:33:51;13.30;99.90
43043;DHT22;28667;50.758;6.096;2023-05-07T02:36:17;13.40;99.90
43043;DHT22;28667;50.758;6.096;2023-05-07T02:38:53;13.30;99.90
43043;DHT22;28667;50.758;6.096;2023-05-07T02:41:19;13.30;99.90
43043;DHT22;28667;50.758;6.096;2023-05-07T02:43:46;13.40;99.90
43043;DHT22;28667;50.758;6.096;2023-05-07T02:46:12;13.30;99.90
43043;DHT22;28667;50.758;6.096;2023-05-07T02:48:42;13.30;99.90
43043;DHT22;28667;50.758;6.096;2023-05-07T02:51:08;13.40;99.90
43043;DHT22;28667;50.758;6.096;2023-05-07T02:53:36;13.40;99.90
43043;DHT22;28667;50.758;6.096;2023-05-07T02:56:02;13.30;99.90
43043;DHT22;28667;50.758;6.096;2023-05-07T02:58:28;13.30;99.90
43043;DHT22;28667;50.758;6.096;2023-05-07T03:00:54;13.30;99.90
43043;DHT22;28667;50.758;6.096;2023-05-07T03:03:32;13.30;99.90
43043;DHT22;28667;50.758;6.096;2023-05-07T03:05:57;13.30;99.90
43043;DHT22;28667;50.758;6.096;2023-05-07T03:08:24;13.20;99.90
43043;DHT22;28667;50.758;6.096;2023-05-07T03:10:50;13.20;99.90
43043;DHT22;28667;50.758;6.096;2023-05-07T03:13:16;13.20;99.90
43043;DHT22;28667;50.758;6.096;2023-05-07T03:15:42;13.20;99.90
43043;DHT22;28667;50.758;6.096;2023-05-07T03:18:08;13.20;99.90
43043;DHT22;28667;50.758;6.096;2023-05-07T03:20:34;13.20;99.90
43043;DHT22;28667;50.758;6.096;2023-05-07T03:23:00;13.20;99.90
43043;DHT22;28667;50.758;6.096;2023-05-07T03:25:25;13.20;99.90
43043;DHT22;28667;50.758;6.096;2023-05-07T03:27:51;13.20;99.90
43043;DHT22;28667;50.758;6.096;2023-05-07T03:30:21;13.20;99.90
43043;DHT22;28667;50.758;6.096;2023-05-07T03:32:47;13.20;99.90
43043;DHT22;28667;50.758;6.096;2023-05-07T03:35:13;13.20;99.90
43043;DHT22;28667;50.758;6.096;2023-05-07T03:37:40;13.20;99.90
43043;DHT22;28667;50.758;6.096;2023-05-07T03:40:06;13.20;99.90
43043;DHT22;28667;50.758;6.096;2023-05-07T03:42:41;13.20;99.90
43043;DHT22;28667;50.758;6.096;2023-05-07T03:45:07;13.20;99.90
43043;DHT22;28667;50.758;6.096;2023-05-07T03:47:34;13.20;99.90
43043;DHT22;28667;50.758;6.096;2023-05-07T03:49:59;13.20;99.90
43043;DHT22;28667;50.758;6.096;2023-05-07T03:52:25;13.20;99.90
43043;DHT22;28667;50.758;6.096;2023-05-07T03:54:53;13.20;99.90
43043;DHT22;28667;50.758;6.096;2023-05-07T03:57:20;13.30;99.90
43043;DHT22;28667;50.758;6.096;2023-05-07T03:59:47;13.30;99.90
43043;DHT22;28667;50.758;6.096;2023-05-07T04:02:13;13.30;99.90
43043;DHT22;28667;50.758;6.096;2023-05-07T04:04:39;13.30;99.90
43043;DHT22;28667;50.758;6.096;2023-05-07T04:07:05;13.30;99.90
43043;DHT22;28667;50.758;6.096;2023-05-07T04:09:37;13.30;99.90
43043;DHT22;28667;50.758;6.096;2023-05-07T04:12:03;13.30;99.90
43043;DHT22;28667;50.758;6.096;2023-05-07T04:14:29;13.30;99.90
43043;DHT22;28667;50.758;6.096;2023-05-07T04:16:58;13.30;99.90
43043;DHT22;28667;50.758;6.096;2023-05-07T04:19:25;13.30;99.90
43043;DHT22;28667;50.758;6.096;2023-05-07T04:21:52;13.30;99.90
43043;DHT22;28667;50.758;6.096;2023-05-07T04:24:18;13.20;99.90
43043;DHT22;28667;50.758;6.096;2023-05-07T04:26:46;13.20;99.90
43043;DHT22;28667;50.758;6.096;2023-05-07T04:29:11;13.30;99.90
43043;DHT22;28667;50.758;6.096;2023-05-07T04:31:37;13.30;99.90
43043;DHT22;28667;50.758;6.096;2023-05-07T04:34:03;13.30;99.90
43043;DHT22;28667;50.758;6.096;2023-05-07T04:36:29;13.30;99.90
43043;DHT22;28667;50.758;6.096;2023-05-07T04:39:02;13.30;99.90
43043;DHT22;28667;50.758;6.096;2023-05-07T04:41:28;13.30;99.90
43043;DHT22;28667;50.758;6.096;2023-05-07T04:43:54;13.40;99.90
43043;DHT22;28667;50.758;6.096;2023-05-07T04:46:23;13.40;99.90
43043;DHT22;28667;50.758;6.096;2023-05-07T04:48:50;13.40;99.90
43043;DHT22;28667;50.758;6.096;2023-05-07T04:51:15;13.40;99.90
43043;DHT22;28667;50.758;6.096;2023-05-07T04:53:41;13.50;99.90
43043;DHT22;28667;50.758;6.096;2023-05-07T04:56:08;13.50;99.90
43043;DHT22;28667;50.758;6.096;2023-05-07T04:58:39;13.50;99.90
43043;DHT22;28667;50.758;6.096;2023-05-07T05:01:05;13.60;99.90
43043;DHT22;28667;50.758;6.096;2023-05-07T05:03:31;13.60;99.90
43043;DHT22;28667;50.758;6.096;2023-05-07T05:05:57;13.60;99.90
43043;DHT22;28667;50.758;6.096;2023-05-07T05:08:27;13.70;99.90
43043;DHT22;28667;50.758;6.096;2023-05-07T05:10:56;13.70;99.90
43043;DHT22;28667;50.758;6.096;2023-05-07T05:13:21;13.80;99.90
43043;DHT22;28667;50.758;6.096;2023-05-07T05:15:47;13.80;99.90
43043;DHT22;28667;50.758;6.096;2023-05-07T05:18:14;13.80;99.90
43043;DHT22;28667;50.758;6.096;2023-05-07T05:20:40;13.90;99.90
43043;DHT22;28667;50.758;6.096;2023-05-07T05:23:07;14.00;99.90
43043;DHT22;28667;50.758;6.096;2023-05-07T05:25:33;14.00;99.90
43043;DHT22;28667;50.758;6.096;2023-05-07T05:28:00;14.00;99.90
43043;DHT22;28667;50.758;6.096;2023-05-07T05:30:26;14.10;99.90
43043;DHT22;28667;50.758;6.096;2023-05-07T05:32:52;14.10;99.90
43043;DHT22;28667;50.758;6.096;2023-05-07T05:35:18;14.10;99.90
43043;DHT22;28667;50.758;6.096;2023-05-07T05:37:44;14.10;99.90
43043;DHT22;28667;50.758;6.096;2023-05-07T05:40:11;14.20;99.90
43043;DHT22;28667;50.758;6.096;2023-05-07T05:42:37;14.20;99.90
43043;DHT22;28667;50.758;6.096;2023-05-07T05:45:03;14.30;99.90
43043;DHT22;28667;50.758;6.096;2023-05-07T05:47:31;14.30;99.90
43043;DHT22;28667;50.758;6.096;2023-05-07T05:49:57;14.30;99.90
43043;DHT22;28667;50.758;6.096;2023-05-07T05:52:23;14.40;99.90
43043;DHT22;28667;50.758;6.096;2023-05-07T05:54:53;14.50;99.90
43043;DHT22;28667;50.758;6.096;2023-05-07T05:57:19;14.50;99.90
43043;DHT22;28667;50.758;6.096;2023-05-07T05:59:45;14.50;99.90
43043;DHT22;28667;50.758;6.096;2023-05-07T06:02:13;14.60;99.90
43043;DHT22;28667;50.758;6.096;2023-05-07T06:04:38;14.60;99.90
43043;DHT22;28667;50.758;6.096;2023-05-07T06:07:04;14.70;99.90
43043;DHT22;28667;50.758;6.096;2023-05-07T06:09:30;14.80;99.90
43043;DHT22;28667;50.758;6.096;2023-05-07T06:11:56;14.80;99.90
43043;DHT22;28667;50.758;6.096;2023-05-07T06:14:22;14.90;99.90
43043;DHT22;28667;50.758;6.096;2023-05-07T06:16:48;15.00;99.90
43043;DHT22;28667;50.758;6.096;2023-05-07T06:19:13;15.00;99.90
43043;DHT22;28667;50.758;6.096;2023-05-07T06:21:40;15.10;99.90
43043;DHT22;28667;50.758;6.096;2023-05-07T06:24:06;15.20;99.90
43043;DHT22;28667;50.758;6.096;2023-05-07T06:26:32;15.20;99.90
43043;DHT22;28667;50.758;6.096;2023-05-07T06:28:58;15.30;99.90
43043;DHT22;28667;50.758;6.096;2023-05-07T06:31:29;15.40;99.90
43043;DHT22;28667;50.758;6.096;2023-05-07T06:34:01;15.40;99.90
43043;DHT22;28667;50.758;6.096;2023-05-07T06:36:32;15.50;99.90
43043;DHT22;28667;50.758;6.096;2023-05-07T06:39:01;15.50;99.90
43043;DHT22;28667;50.758;6.096;2023-05-07T06:41:27;15.50;99.90
43043;DHT22;28667;50.758;6.096;2023-05-07T06:43:54;15.60;99.90
43043;DHT22;28667;50.758;6.096;2023-05-07T06:46:35;15.60;99.90
43043;DHT22;28667;50.758;6.096;2023-05-07T06:49:03;15.70;99.90
43043;DHT22;28667;50.758;6.096;2023-05-07T06:51:29;15.70;99.90
43043;DHT22;28667;50.758;6.096;2023-05-07T06:53:56;15.80;99.90
43043;DHT22;28667;50.758;6.096;2023-05-07T06:56:22;15.90;99.90
43043;DHT22;28667;50.758;6.096;2023-05-07T06:58:49;16.00;99.90
43043;DHT22;28667;50.758;6.096;2023-05-07T07:01:16;16.00;99.90
43043;DHT22;28667;50.758;6.096;2023-05-07T07:03:43;16.10;99.90
43043;DHT22;28667;50.758;6.096;2023-05-07T07:06:09;16.20;99.90
43043;DHT22;28667;50.758;6.096;2023-05-07T07:08:35;16.30;99.90
43043;DHT22;28667;50.758;6.096;2023-05-07T07:11:00;16.40;99.90
43043;DHT22;28667;50.758;6.096;2023-05-07T07:13:26;16.40;99.90
43043;DHT22;28667;50.758;6.096;2023-05-07T07:15:52;16.50;99.90
43043;DHT22;28667;50.758;6.096;2023-05-07T07:18:19;16.60;99.90
43043;DHT22;28667;50.758;6.096;2023-05-07T07:20:47;16.60;99.90
43043;DHT22;28667;50.758;6.096;2023-05-07T07:23:13;16.70;99.90
43043;DHT22;28667;50.758;6.096;2023-05-07T07:25:40;16.80;99.90
43043;DHT22;28667;50.758;6.096;2023-05-07T07:28:06;16.80;99.90
43043;DHT22;28667;50.758;6.096;2023-05-07T07:30:32;16.90;99.90
43043;DHT22;28667;50.758;6.096;2023-05-07T07:32:58;16.90;99.90
43043;DHT22;28667;50.758;6.096;2023-05-07T07:35:30;17.00;99.90
43043;DHT22;28667;50.758;6.096;2023-05-07T07:37:56;17.10;99.90
43043;DHT22;28667;50.758;6.096;2023-05-07T07:40:22;17.20;99.90
43043;DHT22;28667;50.758;6.096;2023-05-07T07:42:48;17.20;99.90
43043;DHT22;28667;50.758;6.096;2023-05-07T07:45:14;17.30;99.90
43043;DHT22;28667;50.758;6.096;2023-05-07T07:47:44;17.50;99.90
43043;DHT22;28667;50.758;6.096;2023-05-07T07:50:10;17.60;99.90
43043;DHT22;28667;50.758;6.096;2023-05-07T07:52:37;17.70;99.90
43043;DHT22;28667;50.758;6.096;2023-05-07T07:55:03;17.80;99.90
43043;DHT22;28667;50.758;6.096;2023-05-07T07:57:30;17.80;99.90
43043;DHT22;28667;50.758;6.096;2023-05-07T07:59:56;17.90;99.90
43043;DHT22;28667;50.758;6.096;2023-05-07T08:02:22;17.90;99.90
43043;DHT22;28667;50.758;6.096;2023-05-07T08:04:49;17.90;99.90
43043;DHT22;28667;50.758;6.096;2023-05-07T08:07:15;18.00;99.90
43043;DHT22;28667;50.758;6.096;2023-05-07T08:09:44;18.00;99.90
43043;DHT22;28667;50.758;6.096;2023-05-07T08:12:11;18.10;99.90
43043;DHT22;28667;50.758;6.096;2023-05-07T08:14:37;18.10;99.90
43043;DHT22;28667;50.758;6.096;2023-05-07T08:17:05;18.20;99.90
43043;DHT22;28667;50.758;6.096;2023-05-07T08:19:31;18.30;99.90
43043;DHT22;28667;50.758;6.096;2023-05-07T08:21:57;18.40;99.90
43043;DHT22;28667;50.758;6.096;2023-05-07T08:24:24;18.50;99.90
43043;DHT22;28667;50.758;6.096;2023-05-07T08:26:51;18.60;99.90
43043;DHT22;28667;50.758;6.096;2023-05-07T08:29:17;18.70;99.90
43043;DHT22;28667;50.758;6.096;2023-05-07T08:31:43;18.80;99.90
43043;DHT22;28667;50.758;6.096;2023-05-07T08:34:09;18.70;99.90
43043;DHT22;28667;50.758;6.096;2023-05-07T08:36:37;18.80;99.90
43043;DHT22;28667;50.758;6.096;2023-05-07T08:39:03;18.80;99.90
43043;DHT22;28667;50.758;6.096;2023-05-07T08:41:30;18.80;99.90
43043;DHT22;28667;50.758;6.096;2023-05-07T08:43:58;18.90;99.90
43043;DHT22;28667;50.758;6.096;2023-05-07T08:46:31;18.90;99.90
43043;DHT22;28667;50.758;6.096;2023-05-07T08:48:58;19.00;99.90
43043;DHT22;28667;50.758;6.096;2023-05-07T08:51:24;19.10;99.90
43043;DHT22;28667;50.758;6.096;2023-05-07T08:53:51;19.10;99.90
43043;DHT22;28667;50.758;6.096;2023-05-07T08:56:30;19.20;99.90
43043;DHT22;28667;50.758;6.096;2023-05-07T08:58:56;19.30;99.90
43043;DHT22;28667;50.758;6.096;2023-05-07T09:01:25;19.30;99.90
43043;DHT22;28667;50.758;6.096;2023-05-07T09:03:52;19.40;99.90
43043;DHT22;28667;50.758;6.096;2023-05-07T09:06:19;19.40;99.90
43043;DHT22;28667;50.758;6.096;2023-05-07T09:08:53;19.50;99.90
43043;DHT22;28667;50.758;6.096;2023-05-07T09:11:20;19.50;99.90
43043;DHT22;28667;50.758;6.096;2023-05-07T09:13:47;19.60;99.90
43043;DHT22;28667;50.758;6.096;2023-05-07T09:16:13;19.60;99.90
43043;DHT22;28667;50.758;6.096;2023-05-07T09:18:44;19.60;99.90
43043;DHT22;28667;50.758;6.096;2023-05-07T09:21:17;19.60;99.90
43043;DHT22;28667;50.758;6.096;2023-05-07T09:23:44;19.60;99.90
43043;DHT22;28667;50.758;6.096;2023-05-07T09:26:10;19.50;99.90
43043;DHT22;28667;50.758;6.096;2023-05-07T09:28:39;19.40;99.90
43043;DHT22;28667;50.758;6.096;2023-05-07T09:31:07;19.40;99.90
43043;DHT22;28667;50.758;6.096;2023-05-07T09:33:33;19.40;99.90
43043;DHT22;28667;50.758;6.096;2023-05-07T09:36:05;19.40;99.90
43043;DHT22;28667;50.758;6.096;2023-05-07T09:38:33;19.40;99.90
43043;DHT22;28667;50.758;6.096;2023-05-07T09:43:39;19.60;99.90
43043;DHT22;28667;50.758;6.096;2023-05-07T09:46:17;19.60;99.90
43043;DHT22;28667;50.758;6.096;2023-05-07T09:48:53;19.60;99.90
43043;DHT22;28667;50.758;6.096;2023-05-07T09:51:39;19.70;99.90
43043;DHT22;28667;50.758;6.096;2023-05-07T09:54:07;19.80;99.90
43043;DHT22;28667;50.758;6.096;2023-05-07T09:56:35;19.90;99.90
43043;DHT22;28667;50.758;6.096;2023-05-07T09:59:05;19.90;99.90
43043;DHT22;28667;50.758;6.096;2023-05-07T10:01:33;20.00;99.90
43043;DHT22;28667;50.758;6.096;2023-05-07T10:04:02;20.00;99.90
43043;DHT22;28667;50.758;6.096;2023-05-07T10:06:30;20.10;99.90
43043;DHT22;28667;50.758;6.096;2023-05-07T10:08:56;20.10;99.90
43043;DHT22;28667;50.758;6.096;2023-05-07T10:11:23;20.20;99.90
43043;DHT22;28667;50.758;6.096;2023-05-07T10:13:50;20.30;99.90
43043;DHT22;28667;50.758;6.096;2023-05-07T10:16:18;20.20;99.90
43043;DHT22;28667;50.758;6.096;2023-05-07T10:18:47;20.20;99.90
43043;DHT22;28667;50.758;6.096;2023-05-07T10:21:20;20.20;99.90
43043;DHT22;28667;50.758;6.096;2023-05-07T10:26:37;20.20;99.90
43043;DHT22;28667;50.758;6.096;2023-05-07T10:29:14;20.20;99.90
43043;DHT22;28667;50.758;6.096;2023-05-07T10:34:22;20.30;99.90
43043;DHT22;28667;50.758;6.096;2023-05-07T10:36:49;20.30;99.90
43043;DHT22;28667;50.758;6.096;2023-05-07T10:39:15;20.40;99.90
43043;DHT22;28667;50.758;6.096;2023-05-07T10:41:42;20.30;99.90
43043;DHT22;28667;50.758;6.096;2023-05-07T10:44:09;20.30;99.90
43043;DHT22;28667;50.758;6.096;2023-05-07T10:46:36;20.40;99.90
43043;DHT22;28667;50.758;6.096;2023-05-07T10:49:09;20.40;99.90
43043;DHT22;28667;50.758;6.096;2023-05-07T10:52:11;20.50;99.90
43043;DHT22;28667;50.758;6.096;2023-05-07T10:54:40;20.50;99.90
43043;DHT22;28667;50.758;6.096;2023-05-07T10:59:59;20.70;99.90
43043;DHT22;28667;50.758;6.096;2023-05-07T11:05:25;20.90;99.90
43043;DHT22;28667;50.758;6.096;2023-05-07T11:08:04;20.90;99.90
43043;DHT22;28667;50.758;6.096;2023-05-07T11:10:56;20.80;99.90
43043;DHT22;28667;50.758;6.096;2023-05-07T11:13:48;20.80;99.90
43043;DHT22;28667;50.758;6.096;2023-05-07T11:16:24;20.70;99.90
43043;DHT22;28667;50.758;6.096;2023-05-07T11:18:59;20.70;99.90
43043;DHT22;28667;50.758;6.096;2023-05-07T11:21:41;20.60;99.90
43043;DHT22;28667;50.758;6.096;2023-05-07T11:24:23;20.50;99.90
43043;DHT22;28667;50.758;6.096;2023-05-07T11:26:54;20.40;99.90
43043;DHT22;28667;50.758;6.096;2023-05-07T11:29:22;20.40;99.90
43043;DHT22;28667;50.758;6.096;2023-05-07T11:31:52;20.30;99.90
43043;DHT22;28667;50.758;6.096;2023-05-07T11:34:24;20.20;99.90
43043;DHT22;28667;50.758;6.096;2023-05-07T11:36:53;20.10;99.90
43043;DHT22;28667;50.758;6.096;2023-05-07T11:39:30;20.00;99.90
43043;DHT22;28667;50.758;6.096;2023-05-07T11:41:57;19.90;99.90
43043;DHT22;28667;50.758;6.096;2023-05-07T11:44:23;19.80;99.90
43043;DHT22;28667;50.758;6.096;2023-05-07T11:46:49;19.70;99.90
43043;DHT22;28667;50.758;6.096;2023-05-07T11:49:15;19.60;99.90
43043;DHT22;28667;50.758;6.096;2023-05-07T11:51:41;19.60;99.90
43043;DHT22;28667;50.758;6.096;2023-05-07T11:54:08;19.50;99.90
43043;DHT22;28667;50.758;6.096;2023-05-07T11:56:37;19.50;99.90
43043;DHT22;28667;50.758;6.096;2023-05-07T11:59:02;19.50;99.90
43043;DHT22;28667;50.758;6.096;2023-05-07T12:01:28;19.50;99.90
43043;DHT22;28667;50.758;6.096;2023-05-07T12:03:54;19.50;99.90
43043;DHT22;28667;50.758;6.096;2023-05-07T12:06:20;19.50;99.90
43043;DHT22;28667;50.758;6.096;2023-05-07T12:08:46;19.50;99.90
43043;DHT22;28667;50.758;6.096;2023-05-07T12:11:21;19.50;99.90
43043;DHT22;28667;50.758;6.096;2023-05-07T12:13:47;19.50;99.90
43043;DHT22;28667;50.758;6.096;2023-05-07T12:16:14;19.50;99.90
43043;DHT22;28667;50.758;6.096;2023-05-07T12:18:44;19.50;99.90
43043;DHT22;28667;50.758;6.096;2023-05-07T12:21:11;19.50;99.90
43043;DHT22;28667;50.758;6.096;2023-05-07T12:23:37;19.50;99.90
43043;DHT22;28667;50.758;6.096;2023-05-07T12:26:03;19.60;99.90
43043;DHT22;28667;50.758;6.096;2023-05-07T12:28:39;19.60;99.90
43043;DHT22;28667;50.758;6.096;2023-05-07T12:31:05;19.70;99.90
43043;DHT22;28667;50.758;6.096;2023-05-07T12:33:31;19.70;99.90
43043;DHT22;28667;50.758;6.096;2023-05-07T12:35:58;19.80;99.90
43043;DHT22;28667;50.758;6.096;2023-05-07T12:38:23;19.80;99.90
43043;DHT22;28667;50.758;6.096;2023-05-07T12:40:55;19.90;99.90
43043;DHT22;28667;50.758;6.096;2023-05-07T12:43:25;20.00;99.90
43043;DHT22;28667;50.758;6.096;2023-05-07T12:45:52;20.10;99.90
43043;DHT22;28667;50.758;6.096;2023-05-07T12:48:20;20.10;99.90
43043;DHT22;28667;50.758;6.096;2023-05-07T12:50:52;20.20;99.90
43043;DHT22;28667;50.758;6.096;2023-05-07T12:53:21;20.20;99.90
43043;DHT22;28667;50.758;6.096;2023-05-07T12:55:48;20.20;99.90
43043;DHT22;28667;50.758;6.096;2023-05-07T13:00:41;20.30;99.90
43043;DHT22;28667;50.758;6.096;2023-05-07T13:03:09;20.40;99.90
43043;DHT22;28667;50.758;6.096;2023-05-07T13:05:35;20.40;99.90
43043;DHT22;28667;50.758;6.096;2023-05-07T13:08:00;20.50;99.90
43043;DHT22;28667;50.758;6.096;2023-05-07T13:10:27;20.60;99.90
43043;DHT22;28667;50.758;6.096;2023-05-07T13:12:52;20.60;99.90
43043;DHT22;28667;50.758;6.096;2023-05-07T13:15:18;20.70;99.90
43043;DHT22;28667;50.758;6.096;2023-05-07T13:17:44;20.80;99.90
43043;DHT22;28667;50.758;6.096;2023-05-07T13:20:10;20.80;99.90
43043;DHT22;28667;50.758;6.096;2023-05-07T13:22:38;20.70;99.90
43043;DHT22;28667;50.758;6.096;2023-05-07T13:25:04;20.70;99.90
43043;DHT22;28667;50.758;6.096;2023-05-07T13:27:30;20.60;99.90
43043;DHT22;28667;50.758;6.096;2023-05-07T13:29:56;20.50;99.90
43043;DHT22;28667;50.758;6.096;2023-05-07T13:32:22;20.50;99.90
43043;DHT22;28667;50.758;6.096;2023-05-07T13:34:48;20.40;99.90
43043;DHT22;28667;50.758;6.096;2023-05-07T13:37:14;20.40;99.90
43043;DHT22;28667;50.758;6.096;2023-05-07T13:39:40;20.40;99.90
43043;DHT22;28667;50.758;6.096;2023-05-07T13:42:06;20.40;99.90
43043;DHT22;28667;50.758;6.096;2023-05-07T13:44:32;20.50;99.90
43043;DHT22;28667;50.758;6.096;2023-05-07T13:46:58;20.40;99.90
43043;DHT22;28667;50.758;6.096;2023-05-07T13:49:24;20.50;99.90
43043;DHT22;28667;50.758;6.096;2023-05-07T13:51:50;20.50;99.90
43043;DHT22;28667;50.758;6.096;2023-05-07T13:54:15;20.50;99.90
43043;DHT22;28667;50.758;6.096;2023-05-07T13:56:41;20.40;99.90
43043;DHT22;28667;50.758;6.096;2023-05-07T13:59:07;20.40;99.90
43043;DHT22;28667;50.758;6.096;2023-05-07T14:01:33;20.40;99.90
43043;DHT22;28667;50.758;6.096;2023-05-07T14:03:59;20.30;99.90
43043;DHT22;28667;50.758;6.096;2023-05-07T14:06:25;20.20;99.90
43043;DHT22;28667;50.758;6.096;2023-05-07T14:08:51;20.20;99.90
43043;DHT22;28667;50.758;6.096;2023-05-07T14:11:17;20.10;99.90
43043;DHT22;28667;50.758;6.096;2023-05-07T14:13:43;20.10;99.90
43043;DHT22;28667;50.758;6.096;2023-05-07T14:16:08;20.00;99.90
43043;DHT22;28667;50.758;6.096;2023-05-07T14:18:34;19.90;99.90
43043;DHT22;28667;50.758;6.096;2023-05-07T14:21:02;19.90;99.90
43043;DHT22;28667;50.758;6.096;2023-05-07T14:23:28;19.90;99.90
43043;DHT22;28667;50.758;6.096;2023-05-07T14:25:54;19.80;99.90
43043;DHT22;28667;50.758;6.096;2023-05-07T14:28:23;19.80;99.90
43043;DHT22;28667;50.758;6.096;2023-05-07T14:30:49;19.70;99.90
43043;DHT22;28667;50.758;6.096;2023-05-07T14:33:14;19.80;99.90
43043;DHT22;28667;50.758;6.096;2023-05-07T14:35:40;19.80;99.90
43043;DHT22;28667;50.758;6.096;2023-05-07T14:38:06;19.90;99.90
43043;DHT22;28667;50.758;6.096;2023-05-07T14:40:31;19.90;99.90
43043;DHT22;28667;50.758;6.096;2023-05-07T14:42:57;19.80;99.90
43043;DHT22;28667;50.758;6.096;2023-05-07T14:45:23;19.80;99.90
43043;DHT22;28667;50.758;6.096;2023-05-07T14:47:49;19.80;99.90
43043;DHT22;28667;50.758;6.096;2023-05-07T14:50:14;19.80;99.90
43043;DHT22;28667;50.758;6.096;2023-05-07T14:52:40;19.80;99.90
43043;DHT22;28667;50.758;6.096;2023-05-07T14:55:06;19.80;99.90
43043;DHT22;28667;50.758;6.096;2023-05-07T14:57:32;19.70;99.90
43043;DHT22;28667;50.758;6.096;2023-05-07T15:00:01;19.70;99.90
43043;DHT22;28667;50.758;6.096;2023-05-07T15:02:30;19.70;99.90
43043;DHT22;28667;50.758;6.096;2023-05-07T15:04:55;19.60;99.90
43043;DHT22;28667;50.758;6.096;2023-05-07T15:07:21;19.60;99.90
43043;DHT22;28667;50.758;6.096;2023-05-07T15:09:47;19.50;99.90
43043;DHT22;28667;50.758;6.096;2023-05-07T15:12:13;19.40;99.90
43043;DHT22;28667;50.758;6.096;2023-05-07T15:14:39;19.40;99.90
43043;DHT22;28667;50.758;6.096;2023-05-07T15:17:05;19.40;99.90
43043;DHT22;28667;50.758;6.096;2023-05-07T15:19:31;19.30;99.90
43043;DHT22;28667;50.758;6.096;2023-05-07T15:21:57;19.30;99.90
43043;DHT22;28667;50.758;6.096;2023-05-07T15:24:25;19.20;99.90
43043;DHT22;28667;50.758;6.096;2023-05-07T15:26:54;19.10;99.90
43043;DHT22;28667;50.758;6.096;2023-05-07T15:29:19;19.10;99.90
43043;DHT22;28667;50.758;6.096;2023-05-07T15:31:46;19.10;99.90
43043;DHT22;28667;50.758;6.096;2023-05-07T15:34:12;19.10;99.90
43043;DHT22;28667;50.758;6.096;2023-05-07T15:36:40;19.10;99.90
43043;DHT22;28667;50.758;6.096;2023-05-07T15:39:06;19.10;99.90
43043;DHT22;28667;50.758;6.096;2023-05-07T15:41:32;19.10;99.90
43043;DHT22;28667;50.758;6.096;2023-05-07T15:43:57;19.10;99.90
43043;DHT22;28667;50.758;6.096;2023-05-07T15:46:24;19.10;99.90
43043;DHT22;28667;50.758;6.096;2023-05-07T15:48:51;19.20;99.90
43043;DHT22;28667;50.758;6.096;2023-05-07T15:51:18;19.20;99.90